createdAt,value
2022-08-11T00:00:33.078Z,23.05
2022-08-11T00:01:33.064Z,23.05
2022-08-11T00:02:33.304Z,23.05
2022-08-11T00:03:43.608Z,23.05
2022-08-11T00:04:34.031Z,23.07
2022-08-11T00:05:33.021Z,23.05
2022-08-11T00:06:33.013Z,23.05
2022-08-11T00:07:33.020Z,23.04
2022-08-11T00:08:32.991Z,23.05
2022-08-11T00:09:32.978Z,23.05
2022-08-11T00:10:33.968Z,23.05
2022-08-11T00:11:32.960Z,23.05
2022-08-11T00:12:32.973Z,23.07
2022-08-11T00:13:32.935Z,23.05
2022-08-11T00:14:36.910Z,23.07
2022-08-11T00:15:33.913Z,23.05
2022-08-11T00:16:32.909Z,23.07
2022-08-11T00:17:32.892Z,23.04
2022-08-11T00:18:32.903Z,23.05
2022-08-11T00:20:13.085Z,23.05
2022-08-11T00:20:33.861Z,23.05
2022-08-11T00:22:02.889Z,23.05
2022-08-11T00:22:33.943Z,23.05
2022-08-11T00:23:32.850Z,23.07
2022-08-11T00:24:32.817Z,23.05
2022-08-11T00:25:33.806Z,23.05
2022-08-11T00:26:32.800Z,23.05
2022-08-11T00:27:32.787Z,23.05
2022-08-11T00:28:32.777Z,23.05
2022-08-11T00:29:32.793Z,23.05
2022-08-11T00:30:32.781Z,23.04
2022-08-11T00:31:32.741Z,23.05
2022-08-11T00:32:32.797Z,23.05
2022-08-11T00:33:44.949Z,23.05
2022-08-11T00:34:33.740Z,23.05
2022-08-11T00:35:53.802Z,23.05
2022-08-11T00:36:33.690Z,23.07
2022-08-11T00:37:32.678Z,23.05
2022-08-11T00:38:32.699Z,23.05
2022-08-11T00:39:32.757Z,23.05
2022-08-11T00:40:32.670Z,23.05
2022-08-11T00:41:32.639Z,23.04
2022-08-11T00:42:32.679Z,23.05
2022-08-11T00:43:32.613Z,23.05
2022-08-11T00:44:32.604Z,23.05
2022-08-11T00:45:32.596Z,23.05
2022-08-11T00:46:32.606Z,23.04
2022-08-11T00:47:32.590Z,23.04
2022-08-11T00:48:32.560Z,23.05
2022-08-11T00:49:32.549Z,23.07
2022-08-11T00:50:32.538Z,23.05
2022-08-11T00:52:05.204Z,23.04
2022-08-11T00:52:33.518Z,23.05
2022-08-11T00:53:32.506Z,23.05
2022-08-11T00:54:33.110Z,23.04
2022-08-11T00:55:32.484Z,23.05
2022-08-11T00:56:32.475Z,23.05
2022-08-11T00:57:36.770Z,23.05
2022-08-11T00:58:34.904Z,23.05
2022-08-11T00:59:34.850Z,23.04
2022-08-11T01:00:32.574Z,23.04
2022-08-11T01:01:32.449Z,23.04
2022-08-11T01:02:32.466Z,23.05
2022-08-11T01:03:32.422Z,23.04
2022-08-11T01:04:32.389Z,23.04
2022-08-11T01:05:32.398Z,23.04
2022-08-11T01:06:32.371Z,23.04
2022-08-11T01:08:01.075Z,23.04
2022-08-11T01:08:33.370Z,23.05
2022-08-11T01:09:32.336Z,23.04
2022-08-11T01:10:32.328Z,23.05
2022-08-11T01:11:32.315Z,23.02
2022-08-11T01:12:32.305Z,23.01
2022-08-11T01:13:32.316Z,23.04
2022-08-11T01:14:34.109Z,23.02
2022-08-11T01:15:32.272Z,23.02
2022-08-11T01:16:32.263Z,23.04
2022-08-11T01:17:32.252Z,23.04
2022-08-11T01:18:32.243Z,23.04
2022-08-11T01:19:32.253Z,23.04
2022-08-11T01:20:44.711Z,23.04
2022-08-11T01:21:33.206Z,23.04
2022-08-11T01:22:32.235Z,23.01
2022-08-11T01:23:32.195Z,23.02
2022-08-11T01:24:32.200Z,23.02
2022-08-11T01:25:32.186Z,23.04
2022-08-11T01:26:33.154Z,23.04
2022-08-11T01:27:32.145Z,23.02
2022-08-11T01:28:32.844Z,23.02
2022-08-11T01:29:32.122Z,23.02
2022-08-11T01:30:32.137Z,23.02
2022-08-11T01:31:32.128Z,23.02
2022-08-11T01:32:32.099Z,23.02
2022-08-11T01:33:32.080Z,23.04
2022-08-11T01:34:32.071Z,23.02
2022-08-11T01:35:32.059Z,23.02
2022-08-11T01:36:32.048Z,23.02
2022-08-11T01:37:32.059Z,23.04
2022-08-11T01:38:32.030Z,23.02
2022-08-11T01:39:32.037Z,23.01
2022-08-11T01:40:32.013Z,23.01
2022-08-11T01:41:31.994Z,23.02
2022-08-11T01:42:32.009Z,23.02
2022-08-11T01:43:31.991Z,23.02
2022-08-11T01:44:31.964Z,23.02
2022-08-11T01:45:31.971Z,23.01
2022-08-11T01:46:31.964Z,23.02
2022-08-11T01:47:31.929Z,23.01
2022-08-11T01:48:31.943Z,23.01
2022-08-11T01:50:09.584Z,23.01
2022-08-11T01:50:32.914Z,23.02
2022-08-11T01:51:31.887Z,23.02
2022-08-11T01:52:40.145Z,23.02
2022-08-11T01:53:32.885Z,23.02
2022-08-11T01:54:31.855Z,23.02
2022-08-11T01:55:31.846Z,23.01
2022-08-11T01:56:31.856Z,23.02
2022-08-11T01:57:31.823Z,23.01
2022-08-11T01:58:39.493Z,23.01
2022-08-11T01:59:32.803Z,23.02
2022-08-11T02:00:31.861Z,23.02
2022-08-11T02:01:31.802Z,23.02
2022-08-11T02:02:31.770Z,23.01
2022-08-11T02:03:31.762Z,23.01
2022-08-11T02:04:31.750Z,23.00
2022-08-11T02:05:31.737Z,23.01
2022-08-11T02:06:31.749Z,23.01
2022-08-11T02:07:31.738Z,23.01
2022-08-11T02:08:33.605Z,23.01
2022-08-11T02:09:31.719Z,23.01
2022-08-11T02:10:36.567Z,23.01
2022-08-11T02:11:35.168Z,23.02
2022-08-11T02:12:31.671Z,23.01
2022-08-11T02:13:36.552Z,23.01
2022-08-11T02:14:32.642Z,23.01
2022-08-11T02:15:31.639Z,23.01
2022-08-11T02:16:31.624Z,23.01
2022-08-11T02:17:31.645Z,23.01
2022-08-11T02:18:31.605Z,23.01
2022-08-11T02:19:31.589Z,23.01
2022-08-11T02:20:31.585Z,23.01
2022-08-11T02:21:31.571Z,23.01
2022-08-11T02:22:31.576Z,23.01
2022-08-11T02:24:06.290Z,23.02
2022-08-11T02:24:32.538Z,23.01
2022-08-11T02:25:31.526Z,23.01
2022-08-11T02:26:31.513Z,23.00
2022-08-11T02:27:31.528Z,23.01
2022-08-11T02:28:34.658Z,23.01
2022-08-11T02:29:32.487Z,23.01
2022-08-11T02:30:31.471Z,23.01
2022-08-11T02:32:24.472Z,23.02
2022-08-11T02:32:32.452Z,23.01
2022-08-11T02:33:31.440Z,23.00
2022-08-11T02:34:31.428Z,23.00
2022-08-11T02:35:31.418Z,23.01
2022-08-11T02:36:31.406Z,23.01
2022-08-11T02:37:31.419Z,23.01
2022-08-11T02:38:31.387Z,23.01
2022-08-11T02:39:31.431Z,23.01
2022-08-11T02:40:31.385Z,23.00
2022-08-11T02:41:31.376Z,23.01
2022-08-11T02:42:32.771Z,23.01
2022-08-11T02:43:31.355Z,23.01
2022-08-11T02:44:31.322Z,23.01
2022-08-11T02:45:31.312Z,23.00
2022-08-11T02:46:31.319Z,23.00
2022-08-11T02:47:31.310Z,23.01
2022-08-11T02:48:31.278Z,23.01
2022-08-11T02:49:31.288Z,23.01
2022-08-11T02:50:31.280Z,23.01
2022-08-11T02:51:31.250Z,23.01
2022-08-11T02:52:31.235Z,23.01
2022-08-11T02:53:31.227Z,23.00
2022-08-11T02:54:31.215Z,23.01
2022-08-11T02:55:44.574Z,23.01
2022-08-11T02:56:32.214Z,23.01
2022-08-11T02:57:31.183Z,23.01
2022-08-11T02:58:31.172Z,23.00
2022-08-11T02:59:31.162Z,23.00
2022-08-11T03:00:31.150Z,23.01
2022-08-11T03:01:31.237Z,23.00
2022-08-11T03:02:31.129Z,23.00
2022-08-11T03:03:31.120Z,23.00
2022-08-11T03:04:37.700Z,23.00
2022-08-11T03:05:32.098Z,23.00
2022-08-11T03:06:31.085Z,23.00
2022-08-11T03:07:31.097Z,23.01
2022-08-11T03:08:31.068Z,23.01
2022-08-11T03:09:31.056Z,23.01
2022-08-11T03:10:31.043Z,23.00
2022-08-11T03:11:31.033Z,22.98
2022-08-11T03:12:31.041Z,23.01
2022-08-11T03:13:31.013Z,23.00
2022-08-11T03:14:31.001Z,23.01
2022-08-11T03:15:30.991Z,23.00
2022-08-11T03:16:30.978Z,23.00
2022-08-11T03:17:30.990Z,23.00
2022-08-11T03:18:30.956Z,22.98
2022-08-11T03:19:30.949Z,23.00
2022-08-11T03:20:33.133Z,23.01
2022-08-11T03:22:01.909Z,23.00
2022-08-11T03:22:31.934Z,23.00
2022-08-11T03:23:30.927Z,23.00
2022-08-11T03:24:30.892Z,23.00
2022-08-11T03:25:30.882Z,22.98
2022-08-11T03:26:30.871Z,22.98
2022-08-11T03:27:30.861Z,22.98
2022-08-11T03:28:30.872Z,23.00
2022-08-11T03:29:30.886Z,23.00
2022-08-11T03:30:30.829Z,23.00
2022-08-11T03:31:30.818Z,23.00
2022-08-11T03:32:30.809Z,23.00
2022-08-11T03:33:30.798Z,23.00
2022-08-11T03:34:30.789Z,22.98
2022-08-11T03:35:30.798Z,22.98
2022-08-11T03:36:32.541Z,23.00
2022-08-11T03:37:31.756Z,23.00
2022-08-11T03:38:30.882Z,22.98
2022-08-11T03:39:30.816Z,23.00
2022-08-11T03:40:30.721Z,22.98
2022-08-11T03:42:01.301Z,23.00
2022-08-11T03:42:31.722Z,23.00
2022-08-11T03:43:30.712Z,22.98
2022-08-11T03:44:30.682Z,22.98
2022-08-11T03:45:30.668Z,22.98
2022-08-11T03:46:30.660Z,22.98
2022-08-11T03:47:30.647Z,22.98
2022-08-11T03:48:30.637Z,22.98
2022-08-11T03:49:30.644Z,22.98
2022-08-11T03:50:30.619Z,22.98
2022-08-11T03:51:30.615Z,23.00
2022-08-11T03:52:31.593Z,22.98
2022-08-11T03:53:30.602Z,22.98
2022-08-11T03:54:30.572Z,22.98
2022-08-11T03:55:30.564Z,22.98
2022-08-11T03:56:30.553Z,22.98
2022-08-11T03:57:30.541Z,22.98
2022-08-11T03:58:30.550Z,23.00
2022-08-11T03:59:30.521Z,22.98
2022-08-11T04:00:30.513Z,22.98
2022-08-11T04:01:30.587Z,22.98
2022-08-11T04:02:30.488Z,22.98
2022-08-11T04:03:31.059Z,22.97
2022-08-11T04:04:30.468Z,22.98
2022-08-11T04:05:30.455Z,22.98
2022-08-11T04:06:30.447Z,22.98
2022-08-11T04:07:30.456Z,22.97
2022-08-11T04:08:33.890Z,22.97
2022-08-11T04:09:30.411Z,22.98
2022-08-11T04:10:30.401Z,22.98
2022-08-11T04:11:30.390Z,22.98
2022-08-11T04:12:35.619Z,22.97
2022-08-11T04:13:31.388Z,23.00
2022-08-11T04:14:30.359Z,22.98
2022-08-11T04:15:30.347Z,22.97
2022-08-11T04:16:30.339Z,22.98
2022-08-11T04:17:30.325Z,22.97
2022-08-11T04:18:30.337Z,22.98
2022-08-11T04:19:30.305Z,22.98
2022-08-11T04:20:30.296Z,22.97
2022-08-11T04:21:30.282Z,22.98
2022-08-11T04:22:30.272Z,22.98
2022-08-11T04:24:34.443Z,22.98
2022-08-11T04:24:38.664Z,22.97
2022-08-11T04:25:31.238Z,22.98
2022-08-11T04:26:30.231Z,22.98
2022-08-11T04:27:37.731Z,22.98
2022-08-11T04:28:31.397Z,22.97
2022-08-11T04:29:36.400Z,22.97
2022-08-11T04:30:31.185Z,22.97
2022-08-11T04:31:50.409Z,22.98
2022-08-11T04:32:31.170Z,22.97
2022-08-11T04:33:34.407Z,22.98
2022-08-11T04:34:31.169Z,22.97
2022-08-11T04:35:30.132Z,22.97
2022-08-11T04:36:30.161Z,22.97
2022-08-11T04:37:30.516Z,22.97
2022-08-11T04:38:30.125Z,22.98
2022-08-11T04:39:30.149Z,22.98
2022-08-11T04:40:30.079Z,22.98
2022-08-11T04:41:30.068Z,22.97
2022-08-11T04:42:31.814Z,22.97
2022-08-11T04:43:30.047Z,22.98
2022-08-11T04:44:30.081Z,22.97
2022-08-11T04:45:30.028Z,22.98
2022-08-11T04:46:30.048Z,22.97
2022-08-11T04:47:30.008Z,22.98
2022-08-11T04:48:30.995Z,22.97
2022-08-11T04:49:33.939Z,22.98
2022-08-11T04:50:29.973Z,22.98
2022-08-11T04:51:29.962Z,22.97
2022-08-11T04:52:37.631Z,22.97
2022-08-11T04:53:30.940Z,22.97
2022-08-11T04:54:29.933Z,22.97
2022-08-11T04:55:29.919Z,22.98
2022-08-11T04:56:29.909Z,22.98
2022-08-11T04:57:29.921Z,22.98
2022-08-11T04:58:31.247Z,22.98
2022-08-11T04:59:29.880Z,22.98
2022-08-11T05:00:29.869Z,22.97
2022-08-11T05:01:33.899Z,22.98
2022-08-11T05:02:30.864Z,22.98
2022-08-11T05:03:29.833Z,22.97
2022-08-11T05:04:29.826Z,22.97
2022-08-11T05:05:29.815Z,22.98
2022-08-11T05:06:29.805Z,23.00
2022-08-11T05:07:29.792Z,22.98
2022-08-11T05:08:29.804Z,22.98
2022-08-11T05:09:29.769Z,22.98
2022-08-11T05:10:29.761Z,22.98
2022-08-11T05:11:29.749Z,22.98
2022-08-11T05:12:29.761Z,22.97
2022-08-11T05:13:29.727Z,22.98
2022-08-11T05:14:29.716Z,22.98
2022-08-11T05:15:29.739Z,22.98
2022-08-11T05:16:29.696Z,23.00
2022-08-11T05:17:29.703Z,23.00
2022-08-11T05:18:29.675Z,22.98
2022-08-11T05:19:29.667Z,23.00
2022-08-11T05:20:29.653Z,22.98
2022-08-11T05:21:29.642Z,22.98
2022-08-11T05:22:30.665Z,22.98
2022-08-11T05:23:29.638Z,22.98
2022-08-11T05:24:29.633Z,22.97
2022-08-11T05:26:25.503Z,23.00
2022-08-11T05:26:46.183Z,22.98
2022-08-11T05:27:30.574Z,22.98
2022-08-11T05:28:29.625Z,22.98
2022-08-11T05:29:29.554Z,22.98
2022-08-11T05:30:31.535Z,22.98
2022-08-11T05:31:30.532Z,22.98
2022-08-11T05:32:29.523Z,22.98
2022-08-11T05:33:29.512Z,22.98
2022-08-11T05:34:29.523Z,22.98
2022-08-11T05:36:02.097Z,22.98
2022-08-11T05:36:30.483Z,22.98
2022-08-11T05:37:29.492Z,22.98
2022-08-11T05:38:29.461Z,22.98
2022-08-11T05:39:36.299Z,22.98
2022-08-11T05:40:30.436Z,22.98
2022-08-11T05:41:29.426Z,23.00
2022-08-11T05:42:30.581Z,22.98
2022-08-11T05:43:29.429Z,23.00
2022-08-11T05:44:29.393Z,23.00
2022-08-11T05:45:29.382Z,22.98
2022-08-11T05:46:30.371Z,22.98
2022-08-11T05:47:29.361Z,23.00
2022-08-11T05:48:29.352Z,23.00
2022-08-11T05:49:29.368Z,22.98
2022-08-11T05:50:32.980Z,22.98
2022-08-11T05:51:30.564Z,22.98
2022-08-11T05:52:32.059Z,22.98
2022-08-11T05:53:29.296Z,22.98
2022-08-11T05:54:30.307Z,23.00
2022-08-11T05:55:29.281Z,22.98
2022-08-11T05:56:29.287Z,23.00
2022-08-11T05:57:48.571Z,23.00
2022-08-11T05:58:30.243Z,22.98
2022-08-11T05:59:29.235Z,23.00
2022-08-11T06:00:29.225Z,23.00
2022-08-11T06:01:29.253Z,22.98
2022-08-11T06:02:29.284Z,23.01
2022-08-11T06:03:29.212Z,23.00
2022-08-11T06:04:29.182Z,23.00
2022-08-11T06:05:29.191Z,23.00
2022-08-11T06:06:29.233Z,23.00
2022-08-11T06:07:29.146Z,23.00
2022-08-11T06:08:29.136Z,22.98
2022-08-11T06:09:29.156Z,23.00
2022-08-11T06:10:29.114Z,23.00
2022-08-11T06:11:43.204Z,23.00
2022-08-11T06:12:30.091Z,23.00
2022-08-11T06:13:29.084Z,23.00
2022-08-11T06:14:29.072Z,23.00
2022-08-11T06:15:29.083Z,23.00
2022-08-11T06:16:29.051Z,23.00
2022-08-11T06:17:39.206Z,23.01
2022-08-11T06:18:30.028Z,23.01
2022-08-11T06:19:29.019Z,23.00
2022-08-11T06:20:29.031Z,23.01
2022-08-11T06:21:28.996Z,23.01
2022-08-11T06:22:28.986Z,23.01
2022-08-11T06:23:29.073Z,23.00
2022-08-11T06:24:29.052Z,23.00
2022-08-11T06:25:28.955Z,23.00
2022-08-11T06:26:28.943Z,23.01
2022-08-11T06:27:28.935Z,23.01
2022-08-11T06:28:28.948Z,23.02
2022-08-11T06:29:38.316Z,23.01
2022-08-11T06:30:29.899Z,23.01
2022-08-11T06:31:28.889Z,23.01
2022-08-11T06:32:28.959Z,23.01
2022-08-11T06:33:28.877Z,23.01
2022-08-11T06:34:28.879Z,23.01
2022-08-11T06:35:28.862Z,23.01
2022-08-11T06:36:28.835Z,23.01
2022-08-11T06:37:32.139Z,23.00
2022-08-11T06:38:29.814Z,23.01
2022-08-11T06:39:28.871Z,23.01
2022-08-11T06:40:28.813Z,23.01
2022-08-11T06:41:28.782Z,23.01
2022-08-11T06:42:28.816Z,23.01
2022-08-11T06:43:28.768Z,23.01
2022-08-11T06:44:28.769Z,23.02
2022-08-11T06:45:28.739Z,23.01
2022-08-11T06:46:28.738Z,23.01
2022-08-11T06:47:28.764Z,23.01
2022-08-11T06:48:28.709Z,23.02
2022-08-11T06:49:28.722Z,23.02
2022-08-11T06:50:28.687Z,23.02
2022-08-11T06:51:32.379Z,23.02
2022-08-11T06:52:35.727Z,23.01
2022-08-11T06:53:29.658Z,23.02
2022-08-11T06:54:28.670Z,23.02
2022-08-11T06:55:56.175Z,23.02
2022-08-11T06:56:29.621Z,23.04
2022-08-11T06:57:30.299Z,23.04
2022-08-11T06:58:28.600Z,23.02
2022-08-11T06:59:28.590Z,23.02
2022-08-11T07:00:28.614Z,23.04
2022-08-11T07:01:28.654Z,23.02
2022-08-11T07:02:31.228Z,23.02
2022-08-11T07:03:28.549Z,23.02
2022-08-11T07:04:28.539Z,23.04
2022-08-11T07:05:28.550Z,23.04
2022-08-11T07:06:28.519Z,23.04
2022-08-11T07:07:29.513Z,23.04
2022-08-11T07:08:33.938Z,23.04
2022-08-11T07:09:29.486Z,23.04
2022-08-11T07:10:28.493Z,23.02
2022-08-11T07:11:28.464Z,23.02
2022-08-11T07:12:28.564Z,23.02
2022-08-11T07:13:44.586Z,23.04
2022-08-11T07:14:29.429Z,23.05
2022-08-11T07:16:10.597Z,23.04
2022-08-11T07:16:29.409Z,23.04
2022-08-11T07:17:28.398Z,23.04
2022-08-11T07:18:28.388Z,23.04
2022-08-11T07:19:28.379Z,23.04
2022-08-11T07:20:28.389Z,23.04
2022-08-11T07:22:00.262Z,23.04
2022-08-11T07:22:29.344Z,23.04
2022-08-11T07:23:28.334Z,23.04
2022-08-11T07:24:58.735Z,23.04
2022-08-11T07:25:29.317Z,23.04
2022-08-11T07:26:28.302Z,23.04
2022-08-11T07:27:32.351Z,23.05
2022-08-11T07:28:29.443Z,23.05
2022-08-11T07:29:28.273Z,23.07
2022-08-11T07:30:28.259Z,23.05
2022-08-11T07:31:29.229Z,23.04
2022-08-11T07:32:28.266Z,23.05
2022-08-11T07:34:08.373Z,23.04
2022-08-11T07:34:29.215Z,23.04
2022-08-11T07:35:28.206Z,23.04
2022-08-11T07:36:28.242Z,23.05
2022-08-11T07:37:28.211Z,23.04
2022-08-11T07:38:28.174Z,23.04
2022-08-11T07:39:28.251Z,23.05
2022-08-11T07:40:28.161Z,23.05
2022-08-11T07:41:28.146Z,23.05
2022-08-11T07:42:28.147Z,23.05
2022-08-11T07:43:28.156Z,23.05
2022-08-11T07:44:33.704Z,23.05
2022-08-11T07:45:29.129Z,23.05
2022-08-11T07:46:28.112Z,23.05
2022-08-11T07:47:28.084Z,23.05
2022-08-11T07:48:28.069Z,23.05
2022-08-11T07:49:28.056Z,23.05
2022-08-11T07:50:28.071Z,23.05
2022-08-11T07:51:28.038Z,23.05
2022-08-11T07:52:28.024Z,23.04
2022-08-11T07:53:28.013Z,23.05
2022-08-11T07:54:28.169Z,23.04
2022-08-11T07:55:51.837Z,23.05
2022-08-11T07:56:39.594Z,23.05
2022-08-11T07:58:10.243Z,23.05
2022-08-11T07:58:30.003Z,23.05
2022-08-11T08:00:03.478Z,23.05
2022-08-11T08:00:29.844Z,23.05
2022-08-11T08:01:27.995Z,23.05
2022-08-11T08:02:29.021Z,23.05
2022-08-11T08:03:27.909Z,23.05
2022-08-11T08:04:27.896Z,23.07
2022-08-11T08:05:27.899Z,23.05
2022-08-11T08:06:36.491Z,23.05
2022-08-11T08:07:28.864Z,23.05
2022-08-11T08:08:27.856Z,23.05
2022-08-11T08:09:27.843Z,23.07
2022-08-11T08:10:27.832Z,23.05
2022-08-11T08:11:27.829Z,23.07
2022-08-11T08:12:27.835Z,23.05
2022-08-11T08:13:27.822Z,23.05
2022-08-11T08:14:27.809Z,23.05
2022-08-11T08:15:27.779Z,23.05
2022-08-11T08:16:27.814Z,23.05
2022-08-11T08:17:27.760Z,23.05
2022-08-11T08:18:28.033Z,23.05
2022-08-11T08:19:27.737Z,23.07
2022-08-11T08:20:27.725Z,23.07
2022-08-11T08:21:27.738Z,23.05
2022-08-11T08:22:37.711Z,23.07
2022-08-11T08:23:28.692Z,23.07
2022-08-11T08:24:27.682Z,23.07
2022-08-11T08:25:27.673Z,23.07
2022-08-11T08:26:27.663Z,23.07
2022-08-11T08:27:27.671Z,23.07
2022-08-11T08:28:32.176Z,23.05
2022-08-11T08:29:27.632Z,23.07
2022-08-11T08:30:27.619Z,23.07
2022-08-11T08:31:27.610Z,23.07
2022-08-11T08:32:27.619Z,23.07
2022-08-11T08:33:27.607Z,23.07
2022-08-11T08:34:27.576Z,23.09
2022-08-11T08:35:32.540Z,23.05
2022-08-11T08:36:28.571Z,23.07
2022-08-11T08:37:44.905Z,23.07
2022-08-11T08:38:28.530Z,23.09
2022-08-11T08:39:27.660Z,23.07
2022-08-11T08:40:27.513Z,23.07
2022-08-11T08:41:27.522Z,23.07
2022-08-11T08:42:27.488Z,23.09
2022-08-11T08:43:27.483Z,23.05
2022-08-11T08:44:44.946Z,23.07
2022-08-11T08:45:28.458Z,23.07
2022-08-11T08:46:27.445Z,23.05
2022-08-11T08:47:41.551Z,23.07
2022-08-11T08:48:28.423Z,23.09
2022-08-11T08:49:27.417Z,23.07
2022-08-11T08:50:28.043Z,23.07
2022-08-11T08:51:27.420Z,23.09
2022-08-11T08:52:39.180Z,23.07
2022-08-11T08:53:28.372Z,23.09
2022-08-11T08:54:27.361Z,23.09
2022-08-11T08:55:27.351Z,23.07
2022-08-11T08:56:27.344Z,23.07
2022-08-11T08:57:27.350Z,23.07
2022-08-11T08:58:27.316Z,23.09
2022-08-11T08:59:27.315Z,23.09
2022-08-11T09:00:28.295Z,23.07
2022-08-11T09:01:27.366Z,23.09
2022-08-11T09:02:33.848Z,23.09
2022-08-11T09:04:07.047Z,23.09
2022-08-11T09:04:28.284Z,23.09
2022-08-11T09:05:27.246Z,23.09
2022-08-11T09:06:27.254Z,23.09
2022-08-11T09:07:27.222Z,23.09
2022-08-11T09:08:27.210Z,23.07
2022-08-11T09:09:27.199Z,23.09
2022-08-11T09:10:27.191Z,23.09
2022-08-11T09:11:27.207Z,23.07
2022-08-11T09:12:38.135Z,23.09
2022-08-11T09:13:28.157Z,23.07
2022-08-11T09:14:27.145Z,23.09
2022-08-11T09:15:27.163Z,23.09
2022-08-11T09:16:27.125Z,23.09
2022-08-11T09:17:27.114Z,23.09
2022-08-11T09:18:31.636Z,23.09
2022-08-11T09:19:28.094Z,23.09
2022-08-11T09:20:27.087Z,23.09
2022-08-11T09:21:48.177Z,23.09
2022-08-11T09:22:28.122Z,23.09
2022-08-11T09:24:07.972Z,23.09
2022-08-11T09:24:28.036Z,23.07
2022-08-11T09:25:27.031Z,23.09
2022-08-11T09:26:30.353Z,23.09
2022-08-11T09:27:27.026Z,23.09
2022-08-11T09:28:26.996Z,23.07
2022-08-11T09:29:26.987Z,23.10
2022-08-11T09:30:26.978Z,23.10
2022-08-11T09:31:27.021Z,23.07
2022-08-11T09:32:26.954Z,23.09
2022-08-11T09:33:26.945Z,23.09
2022-08-11T09:34:26.933Z,23.09
2022-08-11T09:35:26.921Z,23.09
2022-08-11T09:36:26.910Z,23.09
2022-08-11T09:37:54.470Z,23.09
2022-08-11T09:38:27.890Z,23.10
2022-08-11T09:39:26.961Z,23.10
2022-08-11T09:40:27.183Z,23.10
2022-08-11T09:41:26.865Z,23.10
2022-08-11T09:42:27.873Z,23.09
2022-08-11T09:43:26.834Z,23.10
2022-08-11T09:44:26.890Z,23.10
2022-08-11T09:45:26.814Z,23.09
2022-08-11T09:46:26.805Z,23.10
2022-08-11T09:47:26.793Z,23.09
2022-08-11T09:48:26.781Z,23.10
2022-08-11T09:49:26.772Z,23.10
2022-08-11T09:50:26.789Z,23.10
2022-08-11T09:51:26.752Z,23.10
2022-08-11T09:52:26.740Z,23.10
2022-08-11T09:53:35.811Z,23.12
2022-08-11T09:54:27.717Z,23.10
2022-08-11T09:55:26.708Z,23.12
2022-08-11T09:56:26.720Z,23.09
2022-08-11T09:57:26.685Z,23.10
2022-08-11T09:58:42.130Z,23.10
2022-08-11T09:59:27.684Z,23.09
2022-08-11T10:00:26.676Z,23.09
2022-08-11T10:01:26.703Z,23.09
2022-08-11T10:02:26.632Z,23.10
2022-08-11T10:03:26.649Z,23.10
2022-08-11T10:04:26.616Z,23.10
2022-08-11T10:05:26.600Z,23.10
2022-08-11T10:06:33.231Z,23.10
2022-08-11T10:07:27.579Z,23.10
2022-08-11T10:08:26.573Z,23.10
2022-08-11T10:09:26.576Z,23.10
2022-08-11T10:10:26.546Z,23.09
2022-08-11T10:11:26.535Z,23.10
2022-08-11T10:12:26.523Z,23.10
2022-08-11T10:14:30.206Z,23.10
2022-08-11T10:14:32.883Z,23.10
2022-08-11T10:15:27.514Z,23.10
2022-08-11T10:16:26.505Z,23.10
2022-08-11T10:17:26.469Z,23.12
2022-08-11T10:18:26.461Z,23.09
2022-08-11T10:19:26.448Z,23.10
2022-08-11T10:20:26.509Z,23.09
2022-08-11T10:21:26.430Z,23.10
2022-08-11T10:22:26.812Z,23.12
2022-08-11T10:23:26.407Z,23.10
2022-08-11T10:24:26.394Z,23.10
2022-08-11T10:25:26.386Z,23.12
2022-08-11T10:26:26.396Z,23.12
2022-08-11T10:27:40.354Z,23.10
2022-08-11T10:28:36.291Z,23.09
2022-08-11T10:29:32.174Z,23.10
2022-08-11T10:30:27.328Z,23.10
2022-08-11T10:31:38.964Z,23.12
2022-08-11T10:32:31.454Z,23.10
2022-08-11T10:33:36.938Z,23.12
2022-08-11T10:34:28.359Z,23.12
2022-08-11T10:35:26.329Z,23.10
2022-08-11T10:36:26.286Z,23.12
2022-08-11T10:38:06.131Z,23.10
2022-08-11T10:38:27.266Z,23.12
2022-08-11T10:39:26.301Z,23.12
2022-08-11T10:40:26.222Z,23.12
2022-08-11T10:41:26.211Z,23.12
2022-08-11T10:42:41.745Z,23.12
2022-08-11T10:44:02.070Z,23.12
2022-08-11T10:44:27.178Z,23.12
2022-08-11T10:45:26.177Z,23.12
2022-08-11T10:46:28.556Z,23.13
2022-08-11T10:47:26.148Z,23.13
2022-08-11T10:48:26.166Z,23.13
2022-08-11T10:49:26.128Z,23.13
2022-08-11T10:50:26.114Z,23.12
2022-08-11T10:51:50.054Z,23.12
2022-08-11T10:52:27.092Z,23.12
2022-08-11T10:53:26.082Z,23.13
2022-08-11T10:54:26.095Z,23.13
2022-08-11T10:55:26.063Z,23.12
2022-08-11T10:56:26.058Z,23.12
2022-08-11T10:57:26.043Z,23.13
2022-08-11T10:58:26.029Z,23.12
2022-08-11T10:59:26.042Z,23.12
2022-08-11T11:00:26.009Z,23.15
2022-08-11T11:01:26.161Z,23.13
2022-08-11T11:02:25.986Z,23.15
2022-08-11T11:03:25.978Z,23.15
2022-08-11T11:04:25.963Z,23.16
2022-08-11T11:05:25.954Z,23.15
2022-08-11T11:06:29.310Z,23.15
2022-08-11T11:07:25.957Z,23.13
2022-08-11T11:08:25.931Z,23.13
2022-08-11T11:09:25.934Z,23.15
2022-08-11T11:10:25.899Z,23.15
2022-08-11T11:11:25.891Z,23.16
2022-08-11T11:12:25.901Z,23.15
2022-08-11T11:13:25.869Z,23.16
2022-08-11T11:14:27.227Z,23.15
2022-08-11T11:15:25.846Z,23.16
2022-08-11T11:16:25.843Z,23.16
2022-08-11T11:17:25.827Z,23.16
2022-08-11T11:18:25.834Z,23.16
2022-08-11T11:19:25.804Z,23.16
2022-08-11T11:20:36.644Z,23.16
2022-08-11T11:21:26.786Z,23.16
2022-08-11T11:22:25.772Z,23.16
2022-08-11T11:23:25.763Z,23.16
2022-08-11T11:24:25.787Z,23.15
2022-08-11T11:25:25.741Z,23.16
2022-08-11T11:26:27.746Z,23.17
2022-08-11T11:27:25.719Z,23.17
2022-08-11T11:28:25.708Z,23.16
2022-08-11T11:29:25.707Z,23.17
2022-08-11T11:30:25.686Z,23.17
2022-08-11T11:31:25.678Z,23.19
2022-08-11T11:32:25.683Z,23.17
2022-08-11T11:33:25.658Z,23.17
2022-08-11T11:34:25.643Z,23.17
2022-08-11T11:35:25.635Z,23.19
2022-08-11T11:36:25.643Z,23.17
2022-08-11T11:37:25.614Z,23.19
2022-08-11T11:38:25.601Z,23.19
2022-08-11T11:39:25.678Z,23.19
2022-08-11T11:40:31.564Z,23.19
2022-08-11T11:41:26.570Z,23.19
2022-08-11T11:42:25.558Z,23.20
2022-08-11T11:43:25.549Z,23.19
2022-08-11T11:44:25.536Z,23.20
2022-08-11T11:45:25.529Z,23.20
2022-08-11T11:46:29.963Z,23.20
2022-08-11T11:47:25.529Z,23.19
2022-08-11T11:48:25.494Z,23.20
2022-08-11T11:49:25.524Z,23.22
2022-08-11T11:50:25.474Z,23.20
2022-08-11T11:51:26.461Z,23.20
2022-08-11T11:52:25.451Z,23.20
2022-08-11T11:53:25.441Z,23.22
2022-08-11T11:54:25.429Z,23.20
2022-08-11T11:55:25.453Z,23.20
2022-08-11T11:56:25.408Z,23.20
2022-08-11T11:57:25.406Z,23.22
2022-08-11T11:58:25.468Z,23.22
2022-08-11T11:59:25.377Z,23.23
2022-08-11T12:00:25.367Z,23.20
2022-08-11T12:01:26.404Z,23.20
2022-08-11T12:02:25.833Z,23.20
2022-08-11T12:03:25.414Z,23.22
2022-08-11T12:04:25.324Z,23.22
2022-08-11T12:05:25.313Z,23.22
2022-08-11T12:06:25.333Z,23.20
2022-08-11T12:07:25.296Z,23.20
2022-08-11T12:08:27.769Z,23.23
2022-08-11T12:09:25.300Z,23.22
2022-08-11T12:10:25.260Z,23.22
2022-08-11T12:11:25.256Z,23.23
2022-08-11T12:12:25.240Z,23.22
2022-08-11T12:13:25.229Z,23.22
2022-08-11T12:14:25.240Z,23.23
2022-08-11T12:16:04.408Z,23.20
2022-08-11T12:16:33.193Z,23.23
2022-08-11T12:17:26.206Z,23.22
2022-08-11T12:18:25.175Z,23.23
2022-08-11T12:19:25.183Z,23.22
2022-08-11T12:20:31.817Z,23.23
2022-08-11T12:21:26.142Z,23.23
2022-08-11T12:22:25.130Z,23.23
2022-08-11T12:23:25.121Z,23.22
2022-08-11T12:24:29.123Z,23.22
2022-08-11T12:25:25.103Z,23.23
2022-08-11T12:26:27.401Z,23.23
2022-08-11T12:27:25.983Z,23.25
2022-08-11T12:28:25.066Z,23.23
2022-08-11T12:29:25.080Z,23.22
2022-08-11T12:30:25.046Z,23.22
2022-08-11T12:31:25.050Z,23.22
2022-08-11T12:32:25.024Z,23.22
2022-08-11T12:33:25.017Z,23.23
2022-08-11T12:34:25.025Z,23.23
2022-08-11T12:35:24.995Z,23.23
2022-08-11T12:36:24.982Z,23.25
2022-08-11T12:37:24.977Z,23.25
2022-08-11T12:38:29.876Z,23.23
2022-08-11T12:40:13.000Z,23.23
2022-08-11T12:40:43.207Z,23.22
2022-08-11T12:41:25.996Z,23.23
2022-08-11T12:42:24.918Z,23.25
2022-08-11T12:43:36.978Z,23.25
2022-08-11T12:44:25.918Z,23.25
2022-08-11T12:45:24.888Z,23.25
2022-08-11T12:46:24.876Z,23.25
2022-08-11T12:47:25.020Z,23.27
2022-08-11T12:48:58.447Z,23.25
2022-08-11T12:49:25.843Z,23.25
2022-08-11T12:50:24.832Z,23.27
2022-08-11T12:51:24.823Z,23.25
2022-08-11T12:52:24.811Z,23.25